sensor_id;sensor_type;location;lat;lon;timestamp;P1;durP1;ratioP1;P2;durP2;ratioP2
58661;SDS011;44432;49.786;22.760;2023-04-06T00:01:00;13.30;;;5.90;;
58661;SDS011;44432;49.786;22.760;2023-04-06T00:03:31;10.40;;;5.90;;
58661;SDS011;44432;49.786;22.760;2023-04-06T00:06:01;11.40;;;6.40;;
58661;SDS011;44432;49.786;22.760;2023-04-06T00:08:33;10.70;;;6.20;;
58661;SDS011;44432;49.786;22.760;2023-04-06T00:11:04;11.70;;;6.90;;
58661;SDS011;44432;49.786;22.760;2023-04-06T00:13:34;11.50;;;6.80;;
58661;SDS011;44432;49.786;22.760;2023-04-06T00:16:06;9.90;;;5.80;;
58661;SDS011;44432;49.786;22.760;2023-04-06T00:18:37;12.70;;;6.20;;
58661;SDS011;44432;49.786;22.760;2023-04-06T00:21:08;12.40;;;6.60;;
58661;SDS011;44432;49.786;22.760;2023-04-06T00:23:40;14.20;;;6.40;;
58661;SDS011;44432;49.786;22.760;2023-04-06T00:26:11;11.10;;;6.30;;
58661;SDS011;44432;49.786;22.760;2023-04-06T00:28:42;11.60;;;6.10;;
58661;SDS011;44432;49.786;22.760;2023-04-06T00:31:13;12.30;;;6.20;;
58661;SDS011;44432;49.786;22.760;2023-04-06T00:33:43;12.90;;;6.50;;
58661;SDS011;44432;49.786;22.760;2023-04-06T00:36:14;11.10;;;6.30;;
58661;SDS011;44432;49.786;22.760;2023-04-06T00:38:45;12.90;;;6.30;;
58661;SDS011;44432;49.786;22.760;2023-04-06T00:41:15;11.50;;;6.70;;
58661;SDS011;44432;49.786;22.760;2023-04-06T00:43:46;13.60;;;6.30;;
58661;SDS011;44432;49.786;22.760;2023-04-06T00:46:17;9.90;;;6.00;;
58661;SDS011;44432;49.786;22.760;2023-04-06T00:48:48;10.20;;;5.70;;
58661;SDS011;44432;49.786;22.760;2023-04-06T00:51:18;12.10;;;6.30;;
58661;SDS011;44432;49.786;22.760;2023-04-06T00:53:49;12.10;;;6.40;;
58661;SDS011;44432;49.786;22.760;2023-04-06T00:56:20;11.60;;;6.60;;
58661;SDS011;44432;49.786;22.760;2023-04-06T00:58:51;12.20;;;6.80;;
58661;SDS011;44432;49.786;22.760;2023-04-06T01:01:22;10.90;;;6.20;;
58661;SDS011;44432;49.786;22.760;2023-04-06T01:03:53;10.70;;;6.20;;
58661;SDS011;44432;49.786;22.760;2023-04-06T01:06:24;11.50;;;6.30;;
58661;SDS011;44432;49.786;22.760;2023-04-06T01:08:55;13.10;;;6.20;;
58661;SDS011;44432;49.786;22.760;2023-04-06T01:11:26;11.20;;;5.80;;
58661;SDS011;44432;49.786;22.760;2023-04-06T01:13:57;14.00;;;7.20;;
58661;SDS011;44432;49.786;22.760;2023-04-06T01:16:28;12.70;;;6.40;;
58661;SDS011;44432;49.786;22.760;2023-04-06T01:18:59;10.70;;;6.10;;
58661;SDS011;44432;49.786;22.760;2023-04-06T01:21:30;10.20;;;6.10;;
58661;SDS011;44432;49.786;22.760;2023-04-06T01:24:01;11.30;;;6.80;;
58661;SDS011;44432;49.786;22.760;2023-04-06T01:26:32;11.70;;;6.90;;
58661;SDS011;44432;49.786;22.760;2023-04-06T01:29:04;12.20;;;6.40;;
58661;SDS011;44432;49.786;22.760;2023-04-06T01:31:34;12.70;;;6.70;;
58661;SDS011;44432;49.786;22.760;2023-04-06T01:34:05;11.80;;;6.70;;
58661;SDS011;44432;49.786;22.760;2023-04-06T01:36:36;12.70;;;6.80;;
58661;SDS011;44432;49.786;22.760;2023-04-06T01:39:07;14.80;;;6.70;;
58661;SDS011;44432;49.786;22.760;2023-04-06T01:41:38;13.10;;;6.80;;
58661;SDS011;44432;49.786;22.760;2023-04-06T01:44:09;11.10;;;6.10;;
58661;SDS011;44432;49.786;22.760;2023-04-06T01:46:39;17.10;;;8.20;;
58661;SDS011;44432;49.786;22.760;2023-04-06T01:49:10;11.10;;;6.60;;
58661;SDS011;44432;49.786;22.760;2023-04-06T01:51:41;12.30;;;6.50;;
58661;SDS011;44432;49.786;22.760;2023-04-06T01:54:12;12.60;;;6.80;;
58661;SDS011;44432;49.786;22.760;2023-04-06T01:56:42;10.80;;;6.30;;
58661;SDS011;44432;49.786;22.760;2023-04-06T01:59:13;12.20;;;6.90;;
58661;SDS011;44432;49.786;22.760;2023-04-06T02:01:44;12.70;;;6.90;;
58661;SDS011;44432;49.786;22.760;2023-04-06T02:04:15;10.50;;;6.70;;
58661;SDS011;44432;49.786;22.760;2023-04-06T02:06:45;10.10;;;6.10;;
58661;SDS011;44432;49.786;22.760;2023-04-06T02:09:16;11.00;;;6.30;;
58661;SDS011;44432;49.786;22.760;2023-04-06T02:11:47;10.70;;;6.00;;
58661;SDS011;44432;49.786;22.760;2023-04-06T02:14:18;12.90;;;7.20;;
58661;SDS011;44432;49.786;22.760;2023-04-06T02:16:48;10.70;;;6.40;;
58661;SDS011;44432;49.786;22.760;2023-04-06T02:19:19;10.40;;;7.20;;
58661;SDS011;44432;49.786;22.760;2023-04-06T02:21:50;13.40;;;7.30;;
58661;SDS011;44432;49.786;22.760;2023-04-06T02:24:20;15.40;;;6.90;;
58661;SDS011;44432;49.786;22.760;2023-04-06T02:26:51;11.40;;;6.40;;
58661;SDS011;44432;49.786;22.760;2023-04-06T02:29:22;14.80;;;6.90;;
58661;SDS011;44432;49.786;22.760;2023-04-06T02:31:53;12.50;;;6.80;;
58661;SDS011;44432;49.786;22.760;2023-04-06T02:34:24;12.00;;;6.50;;
58661;SDS011;44432;49.786;22.760;2023-04-06T02:36:54;11.40;;;6.40;;
58661;SDS011;44432;49.786;22.760;2023-04-06T02:39:25;14.20;;;6.90;;
58661;SDS011;44432;49.786;22.760;2023-04-06T02:41:56;11.90;;;6.60;;
58661;SDS011;44432;49.786;22.760;2023-04-06T02:44:27;11.10;;;6.80;;
58661;SDS011;44432;49.786;22.760;2023-04-06T02:46:58;10.10;;;6.90;;
58661;SDS011;44432;49.786;22.760;2023-04-06T02:49:29;11.80;;;6.60;;
58661;SDS011;44432;49.786;22.760;2023-04-06T02:51:59;13.80;;;6.50;;
58661;SDS011;44432;49.786;22.760;2023-04-06T02:54:30;10.80;;;6.30;;
58661;SDS011;44432;49.786;22.760;2023-04-06T02:57:01;12.80;;;6.80;;
58661;SDS011;44432;49.786;22.760;2023-04-06T02:59:31;12.60;;;6.70;;
58661;SDS011;44432;49.786;22.760;2023-04-06T03:02:02;12.50;;;6.40;;
58661;SDS011;44432;49.786;22.760;2023-04-06T03:04:33;12.50;;;6.80;;
58661;SDS011;44432;49.786;22.760;2023-04-06T03:07:03;11.90;;;6.50;;
58661;SDS011;44432;49.786;22.760;2023-04-06T03:09:36;11.50;;;6.70;;
58661;SDS011;44432;49.786;22.760;2023-04-06T03:12:07;12.00;;;7.60;;
58661;SDS011;44432;49.786;22.760;2023-04-06T03:14:38;13.70;;;7.60;;
58661;SDS011;44432;49.786;22.760;2023-04-06T03:17:08;12.70;;;8.10;;
58661;SDS011;44432;49.786;22.760;2023-04-06T03:19:39;13.30;;;7.30;;
58661;SDS011;44432;49.786;22.760;2023-04-06T03:22:10;14.10;;;7.90;;
58661;SDS011;44432;49.786;22.760;2023-04-06T03:24:40;12.60;;;7.70;;
58661;SDS011;44432;49.786;22.760;2023-04-06T03:27:11;12.70;;;7.10;;
58661;SDS011;44432;49.786;22.760;2023-04-06T03:29:42;12.10;;;7.50;;
58661;SDS011;44432;49.786;22.760;2023-04-06T03:32:13;14.90;;;8.20;;
58661;SDS011;44432;49.786;22.760;2023-04-06T03:34:43;12.60;;;7.60;;
58661;SDS011;44432;49.786;22.760;2023-04-06T03:37:14;15.10;;;8.60;;
58661;SDS011;44432;49.786;22.760;2023-04-06T03:39:44;14.40;;;8.60;;
58661;SDS011;44432;49.786;22.760;2023-04-06T03:42:15;14.10;;;8.00;;
58661;SDS011;44432;49.786;22.760;2023-04-06T03:44:46;14.10;;;8.30;;
58661;SDS011;44432;49.786;22.760;2023-04-06T03:47:17;13.50;;;8.00;;
58661;SDS011;44432;49.786;22.760;2023-04-06T03:49:47;13.20;;;8.00;;
58661;SDS011;44432;49.786;22.760;2023-04-06T03:52:18;15.60;;;8.80;;
58661;SDS011;44432;49.786;22.760;2023-04-06T03:54:50;14.90;;;8.30;;
58661;SDS011;44432;49.786;22.760;2023-04-06T03:57:21;11.90;;;8.10;;
58661;SDS011;44432;49.786;22.760;2023-04-06T03:59:52;12.80;;;8.20;;
58661;SDS011;44432;49.786;22.760;2023-04-06T04:02:23;14.50;;;9.40;;
58661;SDS011;44432;49.786;22.760;2023-04-06T04:04:54;12.70;;;7.70;;
58661;SDS011;44432;49.786;22.760;2023-04-06T04:07:24;14.90;;;8.40;;
58661;SDS011;44432;49.786;22.760;2023-04-06T04:09:55;18.80;;;10.10;;
58661;SDS011;44432;49.786;22.760;2023-04-06T04:12:26;12.80;;;8.10;;
58661;SDS011;44432;49.786;22.760;2023-04-06T04:14:57;12.50;;;8.30;;
58661;SDS011;44432;49.786;22.760;2023-04-06T04:17:27;12.80;;;8.50;;
58661;SDS011;44432;49.786;22.760;2023-04-06T04:19:58;11.80;;;7.00;;
58661;SDS011;44432;49.786;22.760;2023-04-06T04:22:29;11.80;;;7.20;;
58661;SDS011;44432;49.786;22.760;2023-04-06T04:25:00;14.60;;;7.10;;
58661;SDS011;44432;49.786;22.760;2023-04-06T04:27:31;14.40;;;9.10;;
58661;SDS011;44432;49.786;22.760;2023-04-06T04:30:02;16.60;;;11.20;;
58661;SDS011;44432;49.786;22.760;2023-04-06T04:32:33;16.70;;;10.40;;
58661;SDS011;44432;49.786;22.760;2023-04-06T04:35:04;15.00;;;8.60;;
58661;SDS011;44432;49.786;22.760;2023-04-06T04:37:36;13.00;;;7.70;;
58661;SDS011;44432;49.786;22.760;2023-04-06T04:40:08;13.00;;;7.10;;
58661;SDS011;44432;49.786;22.760;2023-04-06T04:42:40;11.40;;;7.40;;
58661;SDS011;44432;49.786;22.760;2023-04-06T04:45:11;16.40;;;8.10;;
58661;SDS011;44432;49.786;22.760;2023-04-06T04:47:42;20.10;;;8.30;;
58661;SDS011;44432;49.786;22.760;2023-04-06T04:50:13;15.80;;;9.00;;
58661;SDS011;44432;49.786;22.760;2023-04-06T04:52:44;15.60;;;9.00;;
58661;SDS011;44432;49.786;22.760;2023-04-06T04:55:15;14.00;;;8.30;;
58661;SDS011;44432;49.786;22.760;2023-04-06T04:57:46;12.40;;;7.50;;
58661;SDS011;44432;49.786;22.760;2023-04-06T05:00:17;15.80;;;8.20;;
58661;SDS011;44432;49.786;22.760;2023-04-06T05:02:48;14.50;;;7.80;;
58661;SDS011;44432;49.786;22.760;2023-04-06T05:05:19;12.50;;;7.60;;
58661;SDS011;44432;49.786;22.760;2023-04-06T05:07:49;18.60;;;8.30;;
58661;SDS011;44432;49.786;22.760;2023-04-06T05:10:20;13.20;;;8.20;;
58661;SDS011;44432;49.786;22.760;2023-04-06T05:12:51;14.60;;;7.80;;
58661;SDS011;44432;49.786;22.760;2023-04-06T05:15:22;13.90;;;7.80;;
58661;SDS011;44432;49.786;22.760;2023-04-06T05:17:53;14.70;;;7.20;;
58661;SDS011;44432;49.786;22.760;2023-04-06T05:20:24;13.20;;;7.80;;
58661;SDS011;44432;49.786;22.760;2023-04-06T05:22:55;17.00;;;9.00;;
58661;SDS011;44432;49.786;22.760;2023-04-06T05:25:26;14.40;;;7.90;;
58661;SDS011;44432;49.786;22.760;2023-04-06T05:27:57;14.80;;;8.90;;
58661;SDS011;44432;49.786;22.760;2023-04-06T05:30:28;11.80;;;7.30;;
58661;SDS011;44432;49.786;22.760;2023-04-06T05:32:58;18.70;;;9.50;;
58661;SDS011;44432;49.786;22.760;2023-04-06T05:35:29;12.50;;;8.20;;
58661;SDS011;44432;49.786;22.760;2023-04-06T05:38:00;12.30;;;7.00;;
58661;SDS011;44432;49.786;22.760;2023-04-06T05:40:31;11.60;;;6.80;;
58661;SDS011;44432;49.786;22.760;2023-04-06T05:43:02;12.40;;;7.50;;
58661;SDS011;44432;49.786;22.760;2023-04-06T05:45:32;10.70;;;6.60;;
58661;SDS011;44432;49.786;22.760;2023-04-06T05:48:03;10.60;;;6.60;;
58661;SDS011;44432;49.786;22.760;2023-04-06T05:50:34;16.60;;;9.20;;
58661;SDS011;44432;49.786;22.760;2023-04-06T05:53:05;21.10;;;11.30;;
58661;SDS011;44432;49.786;22.760;2023-04-06T05:55:36;18.80;;;9.40;;
58661;SDS011;44432;49.786;22.760;2023-04-06T05:58:06;14.30;;;8.80;;
58661;SDS011;44432;49.786;22.760;2023-04-06T06:00:38;13.50;;;7.80;;
58661;SDS011;44432;49.786;22.760;2023-04-06T06:03:10;11.40;;;6.60;;
58661;SDS011;44432;49.786;22.760;2023-04-06T06:05:41;10.60;;;7.80;;
58661;SDS011;44432;49.786;22.760;2023-04-06T06:08:12;12.80;;;7.60;;
58661;SDS011;44432;49.786;22.760;2023-04-06T06:10:43;14.00;;;7.70;;
58661;SDS011;44432;49.786;22.760;2023-04-06T06:13:13;11.90;;;7.70;;
58661;SDS011;44432;49.786;22.760;2023-04-06T06:15:44;12.60;;;8.10;;
58661;SDS011;44432;49.786;22.760;2023-04-06T06:18:15;15.10;;;8.50;;
58661;SDS011;44432;49.786;22.760;2023-04-06T06:20:46;13.90;;;9.60;;
58661;SDS011;44432;49.786;22.760;2023-04-06T06:23:17;14.20;;;8.30;;
58661;SDS011;44432;49.786;22.760;2023-04-06T06:25:48;11.90;;;8.30;;
58661;SDS011;44432;49.786;22.760;2023-04-06T06:28:18;11.80;;;7.90;;
58661;SDS011;44432;49.786;22.760;2023-04-06T06:30:49;12.40;;;8.10;;
58661;SDS011;44432;49.786;22.760;2023-04-06T06:33:20;15.70;;;9.90;;
58661;SDS011;44432;49.786;22.760;2023-04-06T06:35:51;27.10;;;15.20;;
58661;SDS011;44432;49.786;22.760;2023-04-06T06:38:22;39.80;;;21.00;;
58661;SDS011;44432;49.786;22.760;2023-04-06T06:40:53;16.40;;;10.30;;
58661;SDS011;44432;49.786;22.760;2023-04-06T06:43:23;25.00;;;14.30;;
58661;SDS011;44432;49.786;22.760;2023-04-06T06:45:54;24.40;;;14.20;;
58661;SDS011;44432;49.786;22.760;2023-04-06T06:48:26;28.30;;;16.50;;
58661;SDS011;44432;49.786;22.760;2023-04-06T06:50:57;23.30;;;14.60;;
58661;SDS011;44432;49.786;22.760;2023-04-06T06:53:28;15.20;;;10.60;;
58661;SDS011;44432;49.786;22.760;2023-04-06T06:55:58;19.90;;;12.00;;
58661;SDS011;44432;49.786;22.760;2023-04-06T06:58:29;24.20;;;15.10;;
58661;SDS011;44432;49.786;22.760;2023-04-06T07:01:00;15.80;;;11.20;;
58661;SDS011;44432;49.786;22.760;2023-04-06T07:03:32;14.80;;;10.80;;
58661;SDS011;44432;49.786;22.760;2023-04-06T07:06:03;30.70;;;14.40;;
58661;SDS011;44432;49.786;22.760;2023-04-06T07:08:34;16.40;;;10.50;;
58661;SDS011;44432;49.786;22.760;2023-04-06T07:11:05;18.80;;;13.40;;
58661;SDS011;44432;49.786;22.760;2023-04-06T07:13:35;18.10;;;13.00;;
58661;SDS011;44432;49.786;22.760;2023-04-06T07:16:06;19.70;;;13.20;;
58661;SDS011;44432;49.786;22.760;2023-04-06T07:18:37;17.90;;;13.00;;
58661;SDS011;44432;49.786;22.760;2023-04-06T07:21:08;13.10;;;9.60;;
58661;SDS011;44432;49.786;22.760;2023-04-06T07:23:39;18.60;;;11.10;;
58661;SDS011;44432;49.786;22.760;2023-04-06T07:26:11;14.60;;;10.90;;
58661;SDS011;44432;49.786;22.760;2023-04-06T07:28:42;15.80;;;11.40;;
58661;SDS011;44432;49.786;22.760;2023-04-06T07:31:13;14.50;;;10.50;;
58661;SDS011;44432;49.786;22.760;2023-04-06T07:33:43;21.50;;;15.30;;
58661;SDS011;44432;49.786;22.760;2023-04-06T07:36:14;16.80;;;10.00;;
58661;SDS011;44432;49.786;22.760;2023-04-06T07:38:45;20.30;;;13.30;;
58661;SDS011;44432;49.786;22.760;2023-04-06T07:41:16;16.40;;;11.40;;
58661;SDS011;44432;49.786;22.760;2023-04-06T07:43:47;14.20;;;9.50;;
58661;SDS011;44432;49.786;22.760;2023-04-06T07:46:18;16.00;;;11.10;;
58661;SDS011;44432;49.786;22.760;2023-04-06T07:48:49;15.10;;;10.50;;
58661;SDS011;44432;49.786;22.760;2023-04-06T07:51:19;16.40;;;11.40;;
58661;SDS011;44432;49.786;22.760;2023-04-06T07:53:51;13.90;;;9.90;;
58661;SDS011;44432;49.786;22.760;2023-04-06T07:56:22;12.80;;;8.90;;
58661;SDS011;44432;49.786;22.760;2023-04-06T07:58:53;17.70;;;12.10;;
58661;SDS011;44432;49.786;22.760;2023-04-06T08:01:26;14.10;;;9.90;;
58661;SDS011;44432;49.786;22.760;2023-04-06T08:03:58;17.30;;;11.10;;
58661;SDS011;44432;49.786;22.760;2023-04-06T08:09:00;15.60;;;9.90;;
58661;SDS011;44432;49.786;22.760;2023-04-06T08:11:31;18.00;;;11.90;;
58661;SDS011;44432;49.786;22.760;2023-04-06T08:14:02;20.20;;;11.80;;
58661;SDS011;44432;49.786;22.760;2023-04-06T08:16:33;13.50;;;9.10;;
58661;SDS011;44432;49.786;22.760;2023-04-06T08:19:04;12.90;;;9.10;;
58661;SDS011;44432;49.786;22.760;2023-04-06T08:21:37;11.60;;;8.60;;
58661;SDS011;44432;49.786;22.760;2023-04-06T08:24:09;11.60;;;7.90;;
58661;SDS011;44432;49.786;22.760;2023-04-06T08:26:39;12.90;;;8.90;;
58661;SDS011;44432;49.786;22.760;2023-04-06T08:29:10;10.60;;;8.30;;
58661;SDS011;44432;49.786;22.760;2023-04-06T08:31:41;13.70;;;9.30;;
58661;SDS011;44432;49.786;22.760;2023-04-06T08:34:12;12.20;;;8.60;;
58661;SDS011;44432;49.786;22.760;2023-04-06T08:36:42;15.40;;;10.70;;
58661;SDS011;44432;49.786;22.760;2023-04-06T08:39:14;11.90;;;8.70;;
58661;SDS011;44432;49.786;22.760;2023-04-06T08:41:45;13.30;;;8.50;;
58661;SDS011;44432;49.786;22.760;2023-04-06T08:44:16;14.20;;;9.30;;
58661;SDS011;44432;49.786;22.760;2023-04-06T08:46:47;14.30;;;9.10;;
58661;SDS011;44432;49.786;22.760;2023-04-06T08:49:18;16.10;;;10.30;;
58661;SDS011;44432;49.786;22.760;2023-04-06T08:51:50;16.70;;;10.30;;
58661;SDS011;44432;49.786;22.760;2023-04-06T08:54:21;30.20;;;16.40;;
58661;SDS011;44432;49.786;22.760;2023-04-06T08:56:52;18.10;;;13.30;;
58661;SDS011;44432;49.786;22.760;2023-04-06T08:59:24;17.10;;;13.70;;
58661;SDS011;44432;49.786;22.760;2023-04-06T09:01:55;17.70;;;12.90;;
58661;SDS011;44432;49.786;22.760;2023-04-06T09:04:27;29.30;;;19.40;;
58661;SDS011;44432;49.786;22.760;2023-04-06T09:07:00;30.60;;;21.30;;
58661;SDS011;44432;49.786;22.760;2023-04-06T09:09:31;17.00;;;12.30;;
58661;SDS011;44432;49.786;22.760;2023-04-06T09:12:02;14.30;;;10.50;;
58661;SDS011;44432;49.786;22.760;2023-04-06T09:14:34;18.20;;;14.30;;
58661;SDS011;44432;49.786;22.760;2023-04-06T09:17:06;33.30;;;23.60;;
58661;SDS011;44432;49.786;22.760;2023-04-06T09:19:49;18.50;;;14.00;;
58661;SDS011;44432;49.786;22.760;2023-04-06T09:22:20;17.40;;;13.30;;
58661;SDS011;44432;49.786;22.760;2023-04-06T09:24:52;23.70;;;17.30;;
58661;SDS011;44432;49.786;22.760;2023-04-06T09:27:33;17.50;;;11.70;;
58661;SDS011;44432;49.786;22.760;2023-04-06T09:30:06;14.70;;;10.50;;
58661;SDS011;44432;49.786;22.760;2023-04-06T09:32:48;17.20;;;12.70;;
58661;SDS011;44432;49.786;22.760;2023-04-06T09:35:20;14.10;;;11.20;;
58661;SDS011;44432;49.786;22.760;2023-04-06T09:37:54;17.90;;;13.00;;
58661;SDS011;44432;49.786;22.760;2023-04-06T09:40:24;13.60;;;10.60;;
58661;SDS011;44432;49.786;22.760;2023-04-06T09:42:56;17.00;;;11.30;;
58661;SDS011;44432;49.786;22.760;2023-04-06T09:45:30;17.90;;;11.60;;
58661;SDS011;44432;49.786;22.760;2023-04-06T09:48:01;27.50;;;17.80;;
58661;SDS011;44432;49.786;22.760;2023-04-06T09:50:32;21.10;;;15.40;;
58661;SDS011;44432;49.786;22.760;2023-04-06T09:53:03;35.40;;;21.50;;
58661;SDS011;44432;49.786;22.760;2023-04-06T09:55:36;13.60;;;10.70;;
58661;SDS011;44432;49.786;22.760;2023-04-06T09:58:12;14.20;;;11.40;;
58661;SDS011;44432;49.786;22.760;2023-04-06T10:00:47;14.60;;;10.50;;
58661;SDS011;44432;49.786;22.760;2023-04-06T10:03:24;11.90;;;8.60;;
58661;SDS011;44432;49.786;22.760;2023-04-06T10:06:07;15.00;;;9.30;;
58661;SDS011;44432;49.786;22.760;2023-04-06T10:08:42;18.40;;;10.70;;
58661;SDS011;44432;49.786;22.760;2023-04-06T10:11:16;13.90;;;9.70;;
58661;SDS011;44432;49.786;22.760;2023-04-06T10:13:48;21.50;;;15.50;;
58661;SDS011;44432;49.786;22.760;2023-04-06T10:16:19;15.00;;;10.10;;
58661;SDS011;44432;49.786;22.760;2023-04-06T10:18:51;15.60;;;11.70;;
58661;SDS011;44432;49.786;22.760;2023-04-06T10:21:25;20.00;;;15.00;;
58661;SDS011;44432;49.786;22.760;2023-04-06T10:23:59;16.40;;;10.90;;
58661;SDS011;44432;49.786;22.760;2023-04-06T10:26:30;16.50;;;10.80;;
58661;SDS011;44432;49.786;22.760;2023-04-06T10:29:03;16.60;;;12.00;;
58661;SDS011;44432;49.786;22.760;2023-04-06T10:34:08;18.70;;;12.70;;
58661;SDS011;44432;49.786;22.760;2023-04-06T10:36:39;18.60;;;13.80;;
58661;SDS011;44432;49.786;22.760;2023-04-06T10:39:10;11.70;;;9.40;;
58661;SDS011;44432;49.786;22.760;2023-04-06T10:41:42;16.10;;;11.10;;
58661;SDS011;44432;49.786;22.760;2023-04-06T10:44:19;19.10;;;13.90;;
58661;SDS011;44432;49.786;22.760;2023-04-06T10:46:54;19.10;;;13.00;;
58661;SDS011;44432;49.786;22.760;2023-04-06T10:49:28;12.60;;;10.40;;
58661;SDS011;44432;49.786;22.760;2023-04-06T10:51:59;16.50;;;11.40;;
58661;SDS011;44432;49.786;22.760;2023-04-06T10:54:29;15.40;;;11.20;;
58661;SDS011;44432;49.786;22.760;2023-04-06T10:57:01;16.70;;;12.30;;
58661;SDS011;44432;49.786;22.760;2023-04-06T10:59:32;23.20;;;15.10;;
58661;SDS011;44432;49.786;22.760;2023-04-06T11:02:03;21.50;;;16.80;;
58661;SDS011;44432;49.786;22.760;2023-04-06T11:04:33;38.00;;;22.00;;
58661;SDS011;44432;49.786;22.760;2023-04-06T11:07:04;16.80;;;11.70;;
58661;SDS011;44432;49.786;22.760;2023-04-06T11:09:35;16.20;;;9.70;;
58661;SDS011;44432;49.786;22.760;2023-04-06T11:12:06;13.20;;;9.10;;
58661;SDS011;44432;49.786;22.760;2023-04-06T11:14:37;22.70;;;13.40;;
58661;SDS011;44432;49.786;22.760;2023-04-06T11:17:08;21.70;;;15.30;;
58661;SDS011;44432;49.786;22.760;2023-04-06T11:19:38;20.10;;;13.10;;
58661;SDS011;44432;49.786;22.760;2023-04-06T11:22:09;16.00;;;10.40;;
58661;SDS011;44432;49.786;22.760;2023-04-06T11:24:40;17.80;;;12.80;;
58661;SDS011;44432;49.786;22.760;2023-04-06T11:27:11;17.80;;;12.70;;
58661;SDS011;44432;49.786;22.760;2023-04-06T11:29:43;15.10;;;10.60;;
58661;SDS011;44432;49.786;22.760;2023-04-06T11:32:20;20.70;;;13.20;;
58661;SDS011;44432;49.786;22.760;2023-04-06T11:34:52;14.50;;;10.50;;
58661;SDS011;44432;49.786;22.760;2023-04-06T11:37:25;15.90;;;11.10;;
58661;SDS011;44432;49.786;22.760;2023-04-06T11:39:56;12.00;;;8.00;;
58661;SDS011;44432;49.786;22.760;2023-04-06T11:42:28;12.00;;;8.80;;
58661;SDS011;44432;49.786;22.760;2023-04-06T11:44:59;15.40;;;11.20;;
58661;SDS011;44432;49.786;22.760;2023-04-06T11:47:32;13.90;;;9.00;;
58661;SDS011;44432;49.786;22.760;2023-04-06T11:50:08;11.50;;;8.10;;
58661;SDS011;44432;49.786;22.760;2023-04-06T11:52:41;14.90;;;10.50;;
58661;SDS011;44432;49.786;22.760;2023-04-06T11:55:13;19.40;;;13.10;;
58661;SDS011;44432;49.786;22.760;2023-04-06T12:00:15;17.70;;;11.00;;
58661;SDS011;44432;49.786;22.760;2023-04-06T12:02:47;11.60;;;7.60;;
58661;SDS011;44432;49.786;22.760;2023-04-06T12:05:19;14.30;;;10.10;;
58661;SDS011;44432;49.786;22.760;2023-04-06T12:07:50;14.50;;;10.10;;
58661;SDS011;44432;49.786;22.760;2023-04-06T12:10:22;16.40;;;10.10;;
58661;SDS011;44432;49.786;22.760;2023-04-06T12:12:52;14.60;;;9.80;;
58661;SDS011;44432;49.786;22.760;2023-04-06T12:15:23;13.30;;;9.30;;
58661;SDS011;44432;49.786;22.760;2023-04-06T12:17:54;12.90;;;9.40;;
58661;SDS011;44432;49.786;22.760;2023-04-06T12:20:25;12.90;;;8.50;;
58661;SDS011;44432;49.786;22.760;2023-04-06T12:22:56;19.40;;;13.20;;
58661;SDS011;44432;49.786;22.760;2023-04-06T12:25:26;17.30;;;10.40;;
58661;SDS011;44432;49.786;22.760;2023-04-06T12:27:57;15.40;;;9.30;;
58661;SDS011;44432;49.786;22.760;2023-04-06T12:30:28;11.20;;;8.30;;
58661;SDS011;44432;49.786;22.760;2023-04-06T12:33:00;13.30;;;9.50;;
58661;SDS011;44432;49.786;22.760;2023-04-06T12:35:34;11.30;;;8.50;;
58661;SDS011;44432;49.786;22.760;2023-04-06T12:38:05;11.80;;;8.70;;
58661;SDS011;44432;49.786;22.760;2023-04-06T12:40:37;11.70;;;8.50;;
58661;SDS011;44432;49.786;22.760;2023-04-06T12:43:08;15.00;;;10.20;;
58661;SDS011;44432;49.786;22.760;2023-04-06T12:45:40;35.20;;;18.60;;
58661;SDS011;44432;49.786;22.760;2023-04-06T12:48:11;20.20;;;12.50;;
58661;SDS011;44432;49.786;22.760;2023-04-06T12:50:42;22.10;;;14.30;;
58661;SDS011;44432;49.786;22.760;2023-04-06T12:53:13;18.20;;;12.00;;
58661;SDS011;44432;49.786;22.760;2023-04-06T12:55:44;12.50;;;9.60;;
58661;SDS011;44432;49.786;22.760;2023-04-06T12:58:14;13.40;;;9.30;;
58661;SDS011;44432;49.786;22.760;2023-04-06T13:00:46;15.90;;;9.70;;
58661;SDS011;44432;49.786;22.760;2023-04-06T13:03:18;16.70;;;10.20;;
58661;SDS011;44432;49.786;22.760;2023-04-06T13:05:49;17.00;;;10.80;;
58661;SDS011;44432;49.786;22.760;2023-04-06T13:08:20;14.40;;;9.60;;
58661;SDS011;44432;49.786;22.760;2023-04-06T13:10:51;13.20;;;9.00;;
58661;SDS011;44432;49.786;22.760;2023-04-06T13:13:23;14.70;;;9.80;;
58661;SDS011;44432;49.786;22.760;2023-04-06T13:15:58;22.10;;;14.80;;
58661;SDS011;44432;49.786;22.760;2023-04-06T13:18:31;14.10;;;9.80;;
58661;SDS011;44432;49.786;22.760;2023-04-06T13:21:03;18.40;;;11.50;;
58661;SDS011;44432;49.786;22.760;2023-04-06T13:23:34;13.70;;;9.90;;
58661;SDS011;44432;49.786;22.760;2023-04-06T13:26:06;14.80;;;9.90;;
58661;SDS011;44432;49.786;22.760;2023-04-06T13:28:37;16.70;;;11.30;;
58661;SDS011;44432;49.786;22.760;2023-04-06T13:31:08;18.80;;;12.40;;
58661;SDS011;44432;49.786;22.760;2023-04-06T13:33:38;19.40;;;13.40;;
58661;SDS011;44432;49.786;22.760;2023-04-06T13:36:09;21.70;;;13.00;;
58661;SDS011;44432;49.786;22.760;2023-04-06T13:38:40;14.40;;;9.90;;
58661;SDS011;44432;49.786;22.760;2023-04-06T13:41:11;15.60;;;10.80;;
58661;SDS011;44432;49.786;22.760;2023-04-06T13:43:48;16.70;;;10.60;;
58661;SDS011;44432;49.786;22.760;2023-04-06T13:46:19;19.20;;;12.10;;
58661;SDS011;44432;49.786;22.760;2023-04-06T13:48:51;17.40;;;12.10;;
58661;SDS011;44432;49.786;22.760;2023-04-06T13:51:22;15.40;;;10.20;;
58661;SDS011;44432;49.786;22.760;2023-04-06T13:53:54;20.70;;;12.30;;
58661;SDS011;44432;49.786;22.760;2023-04-06T13:56:25;12.50;;;8.90;;
58661;SDS011;44432;49.786;22.760;2023-04-06T13:58:56;13.60;;;10.40;;
58661;SDS011;44432;49.786;22.760;2023-04-06T14:01:27;16.80;;;11.90;;
58661;SDS011;44432;49.786;22.760;2023-04-06T14:03:58;13.90;;;9.90;;
58661;SDS011;44432;49.786;22.760;2023-04-06T14:06:29;16.30;;;11.10;;
58661;SDS011;44432;49.786;22.760;2023-04-06T14:08:59;19.20;;;12.00;;
58661;SDS011;44432;49.786;22.760;2023-04-06T14:11:31;19.40;;;10.90;;
58661;SDS011;44432;49.786;22.760;2023-04-06T14:14:02;13.60;;;10.20;;
58661;SDS011;44432;49.786;22.760;2023-04-06T14:16:33;14.90;;;10.00;;
58661;SDS011;44432;49.786;22.760;2023-04-06T14:19:04;13.00;;;9.40;;
58661;SDS011;44432;49.786;22.760;2023-04-06T14:21:35;15.80;;;8.80;;
58661;SDS011;44432;49.786;22.760;2023-04-06T14:24:07;11.90;;;7.50;;
58661;SDS011;44432;49.786;22.760;2023-04-06T14:26:38;18.80;;;10.20;;
58661;SDS011;44432;49.786;22.760;2023-04-06T14:29:10;13.90;;;9.80;;
58661;SDS011;44432;49.786;22.760;2023-04-06T14:31:41;16.60;;;10.00;;
58661;SDS011;44432;49.786;22.760;2023-04-06T14:34:13;24.90;;;13.50;;
58661;SDS011;44432;49.786;22.760;2023-04-06T14:36:45;16.20;;;10.00;;
58661;SDS011;44432;49.786;22.760;2023-04-06T14:39:15;13.30;;;9.00;;
58661;SDS011;44432;49.786;22.760;2023-04-06T14:41:46;17.70;;;11.30;;
58661;SDS011;44432;49.786;22.760;2023-04-06T14:44:17;15.70;;;10.40;;
58661;SDS011;44432;49.786;22.760;2023-04-06T14:46:48;14.70;;;9.70;;